Etna, New Hampshire
Current Conditions -  °F | °C
As of 6:53 AM on Friday 31 Oct 2014 (Local Time) from KLEB Reporting Station
Overcast Overcast  
Wind Chill: 40°   Ceiling: 4600
Heat Index: 40°   Visibility: 10mi
Dew Point: 36°   Wind: 3mph
Humidity: 86%   Direction: 180°S
Pressure: 30.03"   Gusts: NA
Location:  43.69°N, 72.22°W
Report Text: KLEB 311053Z AUTO 18003KT 10SM OVC046 04/02 A3003 RMK AO2 SLP171 T00440022
Loading
Personal Weather Stations






























Interactive Weather Map
Tropical Storm Tracking
New forecast layout! Learn more

10-Day Weather Forecast

Advertisements
Track Severe Weather on mobile